sensor_id;sensor_type;location;lat;lon;timestamp;pressure;altitude;pressure_sealevel;temperature;humidity
65754;BME280;69207;47.502;18.940;2023-05-29T00:00:13;98045.72;;;13.68;64.83
65754;BME280;69207;47.502;18.940;2023-05-29T00:01:18;98044.38;;;13.69;64.85
65754;BME280;69207;47.502;18.940;2023-05-29T00:02:23;98040.28;;;13.70;64.85
65754;BME280;69207;47.502;18.940;2023-05-29T00:03:26;98045.94;;;13.72;64.84
65754;BME280;69207;47.502;18.940;2023-05-29T00:04:30;98048.72;;;13.72;64.80
65754;BME280;69207;47.502;18.940;2023-05-29T00:05:33;98043.91;;;13.72;64.90
65754;BME280;69207;47.502;18.940;2023-05-29T00:06:35;98043.19;;;13.72;65.11
65754;BME280;69207;47.502;18.940;2023-05-29T00:07:39;98041.72;;;13.71;65.21
65754;BME280;69207;47.502;18.940;2023-05-29T00:08:43;98045.22;;;13.71;65.30
65754;BME280;69207;47.502;18.940;2023-05-29T00:09:45;98045.94;;;13.72;65.34
65754;BME280;69207;47.502;18.940;2023-05-29T00:10:48;98038.97;;;13.71;65.52
65754;BME280;69207;47.502;18.940;2023-05-29T00:11:52;98036.22;;;13.71;65.66
65754;BME280;69207;47.502;18.940;2023-05-29T00:12:56;98045.81;;;13.70;65.67
65754;BME280;69207;47.502;18.940;2023-05-29T00:13:59;98044.50;;;13.71;65.55
65754;BME280;69207;47.502;18.940;2023-05-29T00:15:03;98043.06;;;13.70;65.54
65754;BME280;69207;47.502;18.940;2023-05-29T00:16:07;98038.88;;;13.69;65.49
65754;BME280;69207;47.502;18.940;2023-05-29T00:17:12;98047.88;;;13.69;65.46
65754;BME280;69207;47.502;18.940;2023-05-29T00:18:15;98038.97;;;13.71;65.42
65754;BME280;69207;47.502;18.940;2023-05-29T00:19:18;98046.53;;;13.70;65.62
65754;BME280;69207;47.502;18.940;2023-05-29T00:20:22;98045.94;;;13.72;65.83
65754;BME280;69207;47.502;18.940;2023-05-29T00:21:25;98044.00;;;13.74;66.01
65754;BME280;69207;47.502;18.940;2023-05-29T00:22:28;98039.81;;;13.73;66.27
65754;BME280;69207;47.502;18.940;2023-05-29T00:23:31;98045.34;;;13.73;66.53
65754;BME280;69207;47.502;18.940;2023-05-29T00:24:34;98047.47;;;13.75;66.72
65754;BME280;69207;47.502;18.940;2023-05-29T00:25:37;98046.03;;;13.74;66.92
65754;BME280;69207;47.502;18.940;2023-05-29T00:26:40;98042.66;;;13.76;67.10
65754;BME280;69207;47.502;18.940;2023-05-29T00:27:43;98046.16;;;13.76;67.30
65754;BME280;69207;47.502;18.940;2023-05-29T00:28:46;98049.53;;;13.74;67.62
65754;BME280;69207;47.502;18.940;2023-05-29T00:29:49;98048.81;;;13.74;67.93
65754;BME280;69207;47.502;18.940;2023-05-29T00:30:52;98048.81;;;13.74;68.11
65754;BME280;69207;47.502;18.940;2023-05-29T00:31:55;98048.81;;;13.74;68.40
65754;BME280;69207;47.502;18.940;2023-05-29T00:32:59;98052.28;;;13.74;68.52
65754;BME280;69207;47.502;18.940;2023-05-29T00:34:02;98052.28;;;13.74;68.50
65754;BME280;69207;47.502;18.940;2023-05-29T00:35:05;98053.12;;;13.77;68.59
65754;BME280;69207;47.502;18.940;2023-05-29T00:36:08;98047.72;;;13.79;68.97
65754;BME280;69207;47.502;18.940;2023-05-29T00:37:11;98049.75;;;13.79;69.26
65754;BME280;69207;47.502;18.940;2023-05-29T00:38:14;98047.00;;;13.79;69.50
65754;BME280;69207;47.502;18.940;2023-05-29T00:39:17;98046.38;;;13.80;69.74
65754;BME280;69207;47.502;18.940;2023-05-29T00:40:20;98044.34;;;13.81;70.08
65754;BME280;69207;47.502;18.940;2023-05-29T00:41:23;98043.53;;;13.78;70.35
65754;BME280;69207;47.502;18.940;2023-05-29T00:42:26;98036.56;;;13.77;70.62
65754;BME280;69207;47.502;18.940;2023-05-29T00:43:29;98040.03;;;13.78;70.90
65754;BME280;69207;47.502;18.940;2023-05-29T00:44:32;98047.00;;;13.79;70.95
65754;BME280;69207;47.502;18.940;2023-05-29T00:45:35;98040.84;;;13.80;71.12
65754;BME280;69207;47.502;18.940;2023-05-29T00:46:41;98040.84;;;13.80;71.35
65754;BME280;69207;47.502;18.940;2023-05-29T00:47:44;98042.41;;;13.83;71.51
65754;BME280;69207;47.502;18.940;2023-05-29T00:48:48;98043.13;;;13.84;71.71
65754;BME280;69207;47.502;18.940;2023-05-29T00:49:53;98042.53;;;13.85;71.91
65754;BME280;69207;47.502;18.940;2023-05-29T00:50:56;98038.31;;;13.84;72.02
65754;BME280;69207;47.502;18.940;2023-05-29T00:51:59;98041.09;;;13.84;72.14
65754;BME280;69207;47.502;18.940;2023-05-29T00:53:03;98041.19;;;13.86;72.09
65754;BME280;69207;47.502;18.940;2023-05-29T00:54:07;98037.03;;;13.99;67.37
65754;BME280;69207;47.502;18.940;2023-05-29T00:55:11;98045.88;;;14.09;65.92
65754;BME280;69207;47.502;18.940;2023-05-29T00:56:16;98039.56;;;14.20;64.22
65754;BME280;69207;47.502;18.940;2023-05-29T00:57:20;98046.75;;;14.25;64.17
65754;BME280;69207;47.502;18.940;2023-05-29T00:58:24;98047.06;;;14.32;63.63
65754;BME280;69207;47.502;18.940;2023-05-29T00:59:29;98045.38;;;14.38;62.11
65754;BME280;69207;47.502;18.940;2023-05-29T01:00:33;98047.13;;;14.45;61.74
65754;BME280;69207;47.502;18.940;2023-05-29T01:01:38;98039.47;;;14.58;60.23
65754;BME280;69207;47.502;18.940;2023-05-29T01:02:43;98048.63;;;14.74;58.74
65754;BME280;69207;47.502;18.940;2023-05-29T01:03:47;98045.03;;;14.85;58.49
65754;BME280;69207;47.502;18.940;2023-05-29T01:04:51;98039.41;;;14.97;57.85
65754;BME280;69207;47.502;18.940;2023-05-29T01:05:57;98034.87;;;15.03;58.15
65754;BME280;69207;47.502;18.940;2023-05-29T01:07:01;98032.25;;;15.05;58.35
65754;BME280;69207;47.502;18.940;2023-05-29T01:08:04;98034.47;;;15.09;58.43
65754;BME280;69207;47.502;18.940;2023-05-29T01:09:07;98040.22;;;15.13;58.36
65754;BME280;69207;47.502;18.940;2023-05-29T01:10:11;98043.69;;;15.14;58.40
65754;BME280;69207;47.502;18.940;2023-05-29T01:11:31;98028.66;;;15.17;58.44
65754;BME280;69207;47.502;18.940;2023-05-29T01:13:03;98040.00;;;15.23;58.37
65754;BME280;69207;47.502;18.940;2023-05-29T01:14:10;98040.81;;;15.25;58.45
65754;BME280;69207;47.502;18.940;2023-05-29T01:20:48;98044.72;;;15.34;59.08
65754;BME280;69207;47.502;18.940;2023-05-29T01:22:07;98044.72;;;15.34;59.16
65754;BME280;69207;47.502;18.940;2023-05-29T01:23:50;98039.19;;;15.34;59.32
65754;BME280;69207;47.502;18.940;2023-05-29T01:25:08;98038.47;;;15.34;59.55
65754;BME280;69207;47.502;18.940;2023-05-29T01:27:41;98040.41;;;15.31;60.27
65754;BME280;69207;47.502;18.940;2023-05-29T01:28:48;98034.78;;;15.29;60.51
65754;BME280;69207;47.502;18.940;2023-05-29T01:29:53;98035.50;;;15.29;60.63
65754;BME280;69207;47.502;18.940;2023-05-29T01:30:59;98031.28;;;15.28;60.78
65754;BME280;69207;47.502;18.940;2023-05-29T01:32:04;98029.16;;;15.27;61.32
65754;BME280;69207;47.502;18.940;2023-05-29T01:33:08;98025.63;;;15.26;61.46
65754;BME280;69207;47.502;18.940;2023-05-29T01:34:12;98030.47;;;15.26;61.86
65754;BME280;69207;47.502;18.940;2023-05-29T01:35:15;98037.34;;;15.25;62.94
65754;BME280;69207;47.502;18.940;2023-05-29T01:36:18;98033.03;;;15.22;62.88
65754;BME280;69207;47.502;18.940;2023-05-29T01:37:21;98033.66;;;15.20;63.41
65754;BME280;69207;47.502;18.940;2023-05-29T01:38:24;98028.72;;;15.19;63.51
65754;BME280;69207;47.502;18.940;2023-05-29T01:39:28;98031.28;;;15.15;64.38
65754;BME280;69207;47.502;18.940;2023-05-29T01:40:32;98037.44;;;15.13;64.37
65754;BME280;69207;47.502;18.940;2023-05-29T01:41:35;98027.81;;;15.14;64.50
65754;BME280;69207;47.502;18.940;2023-05-29T01:42:39;98028.44;;;15.13;65.07
65754;BME280;69207;47.502;18.940;2023-05-29T01:43:44;98033.13;;;15.10;65.16
65754;BME280;69207;47.502;18.940;2023-05-29T01:44:48;98027.59;;;15.10;65.41
65754;BME280;69207;47.502;18.940;2023-05-29T01:45:52;98030.91;;;15.07;65.85
65754;BME280;69207;47.502;18.940;2023-05-29T01:46:56;98028.03;;;15.04;66.08
65754;BME280;69207;47.502;18.940;2023-05-29T01:47:59;98030.78;;;15.04;66.14
65754;BME280;69207;47.502;18.940;2023-05-29T01:49:02;98029.34;;;15.03;66.02
65754;BME280;69207;47.502;18.940;2023-05-29T01:50:06;98023.81;;;15.03;66.17
65754;BME280;69207;47.502;18.940;2023-05-29T01:51:11;98024.44;;;15.02;66.86
65754;BME280;69207;47.502;18.940;2023-05-29T01:52:15;98021.59;;;15.00;67.04
65754;BME280;69207;47.502;18.940;2023-05-29T01:53:18;98022.81;;;14.97;67.32
65754;BME280;69207;47.502;18.940;2023-05-29T01:54:21;98019.31;;;14.96;67.37
65754;BME280;69207;47.502;18.940;2023-05-29T01:55:24;98016.47;;;14.94;67.71
65754;BME280;69207;47.502;18.940;2023-05-29T01:56:28;98018.41;;;14.92;68.12
65754;BME280;69207;47.502;18.940;2023-05-29T01:57:31;98013.50;;;14.90;68.12
65754;BME280;69207;47.502;18.940;2023-05-29T01:58:35;98014.13;;;14.89;68.33
65754;BME280;69207;47.502;18.940;2023-05-29T01:59:39;98014.13;;;14.89;68.35
65754;BME280;69207;47.502;18.940;2023-05-29T02:00:44;98007.03;;;14.86;68.53
65754;BME280;69207;47.502;18.940;2023-05-29T02:01:47;98004.87;;;14.84;68.49
65754;BME280;69207;47.502;18.940;2023-05-29T02:02:50;98006.09;;;14.81;68.45
65754;BME280;69207;47.502;18.940;2023-05-29T02:03:53;98000.56;;;14.81;68.34
65754;BME280;69207;47.502;18.940;2023-05-29T02:04:56;98003.87;;;14.77;68.54
65754;BME280;69207;47.502;18.940;2023-05-29T02:06:00;98003.75;;;14.75;68.49
65754;BME280;69207;47.502;18.940;2023-05-29T02:07:03;98005.09;;;14.74;68.64
65754;BME280;69207;47.502;18.940;2023-05-29T02:08:06;98003.75;;;14.75;68.58
65754;BME280;69207;47.502;18.940;2023-05-29T02:09:10;98003.16;;;14.77;68.63
65754;BME280;69207;47.502;18.940;2023-05-29T02:10:13;98001.69;;;14.76;68.72
65754;BME280;69207;47.502;18.940;2023-05-29T02:11:16;98003.87;;;14.77;68.70
65754;BME280;69207;47.502;18.940;2023-05-29T02:12:19;98004.59;;;14.78;68.65
65754;BME280;69207;47.502;18.940;2023-05-29T02:13:22;98004.59;;;14.78;68.60
65754;BME280;69207;47.502;18.940;2023-05-29T02:14:25;98000.47;;;14.79;68.45
65754;BME280;69207;47.502;18.940;2023-05-29T02:15:28;98001.91;;;14.80;68.38
65754;BME280;69207;47.502;18.940;2023-05-29T02:16:31;98000.69;;;14.83;68.21
65754;BME280;69207;47.502;18.940;2023-05-29T02:17:36;97997.94;;;14.83;68.08
65754;BME280;69207;47.502;18.940;2023-05-29T02:18:39;97999.44;;;14.86;67.96
65754;BME280;69207;47.502;18.940;2023-05-29T02:19:43;97994.63;;;14.87;67.82
65754;BME280;69207;47.502;18.940;2023-05-29T02:20:47;97995.34;;;14.87;67.80
65754;BME280;69207;47.502;18.940;2023-05-29T02:21:50;97991.28;;;14.88;67.73
65754;BME280;69207;47.502;18.940;2023-05-29T02:22:53;98001.00;;;14.89;67.80
65754;BME280;69207;47.502;18.940;2023-05-29T02:23:57;97993.41;;;14.90;67.65
65754;BME280;69207;47.502;18.940;2023-05-29T02:24:59;97998.41;;;14.93;67.64
65754;BME280;69207;47.502;18.940;2023-05-29T02:26:02;97997.19;;;14.96;67.55
65754;BME280;69207;47.502;18.940;2023-05-29T02:27:05;97997.41;;;15.00;67.41
65754;BME280;69207;47.502;18.940;2023-05-29T02:28:09;97995.97;;;14.99;67.37
65754;BME280;69207;47.502;18.940;2023-05-29T02:29:12;98000.88;;;15.01;67.31
65754;BME280;69207;47.502;18.940;2023-05-29T02:30:15;98002.41;;;15.04;67.28
65754;BME280;69207;47.502;18.940;2023-05-29T02:31:18;98000.97;;;15.03;67.24
65754;BME280;69207;47.502;18.940;2023-05-29T02:32:21;97995.44;;;15.03;67.13
65754;BME280;69207;47.502;18.940;2023-05-29T02:33:25;97997.59;;;15.04;67.12
65754;BME280;69207;47.502;18.940;2023-05-29T02:34:28;97999.84;;;15.08;66.90
65754;BME280;69207;47.502;18.940;2023-05-29T02:35:31;98002.09;;;15.12;66.82
65754;BME280;69207;47.502;18.940;2023-05-29T02:36:34;97998.72;;;15.13;66.70
65754;BME280;69207;47.502;18.940;2023-05-29T02:37:39;97996.66;;;15.14;66.62
65754;BME280;69207;47.502;18.940;2023-05-29T02:38:42;97996.03;;;15.15;66.55
65754;BME280;69207;47.502;18.940;2023-05-29T02:39:45;97999.62;;;15.18;66.50
65754;BME280;69207;47.502;18.940;2023-05-29T02:40:48;97984.47;;;15.19;66.43
65754;BME280;69207;47.502;18.940;2023-05-29T02:41:51;97990.19;;;15.23;66.38
65754;BME280;69207;47.502;18.940;2023-05-29T02:42:54;97992.25;;;15.22;66.32
65754;BME280;69207;47.502;18.940;2023-05-29T02:43:57;97993.06;;;15.25;66.42
65754;BME280;69207;47.502;18.940;2023-05-29T02:45:00;97989.66;;;15.26;66.18
65754;BME280;69207;47.502;18.940;2023-05-29T02:46:03;97988.34;;;15.27;66.16
65754;BME280;69207;47.502;18.940;2023-05-29T02:47:07;97985.66;;;15.29;66.18
65754;BME280;69207;47.502;18.940;2023-05-29T02:48:09;97985.59;;;15.27;66.27
65754;BME280;69207;47.502;18.940;2023-05-29T02:49:13;97982.91;;;15.29;66.37
65754;BME280;69207;47.502;18.940;2023-05-29T02:50:15;97981.56;;;15.30;66.37
65754;BME280;69207;47.502;18.940;2023-05-29T02:51:18;97985.75;;;15.31;66.29
65754;BME280;69207;47.502;18.940;2023-05-29T02:52:21;97973.97;;;15.31;66.31
65754;BME280;69207;47.502;18.940;2023-05-29T02:53:25;97983.69;;;15.32;66.29
65754;BME280;69207;47.502;18.940;2023-05-29T02:54:28;97984.34;;;15.30;66.46
65754;BME280;69207;47.502;18.940;2023-05-29T02:55:31;97981.34;;;15.40;65.55
65754;BME280;69207;47.502;18.940;2023-05-29T02:56:34;97989.00;;;15.42;65.64
65754;BME280;69207;47.502;18.940;2023-05-29T02:57:38;97986.16;;;15.40;65.80
65754;BME280;69207;47.502;18.940;2023-05-29T02:58:41;97981.97;;;15.39;66.17
65754;BME280;69207;47.502;18.940;2023-05-29T02:59:44;97985.44;;;15.39;66.21
65754;BME280;69207;47.502;18.940;2023-05-29T03:00:48;97987.59;;;15.41;66.39
65754;BME280;69207;47.502;18.940;2023-05-29T03:01:52;97988.31;;;15.41;66.23
65754;BME280;69207;47.502;18.940;2023-05-29T03:02:55;97989.72;;;15.42;65.96
65754;BME280;69207;47.502;18.940;2023-05-29T03:03:59;97987.59;;;15.41;66.44
65754;BME280;69207;47.502;18.940;2023-05-29T03:05:02;97984.19;;;15.42;66.56
65754;BME280;69207;47.502;18.940;2023-05-29T03:06:06;97993.31;;;15.45;66.20
65754;BME280;69207;47.502;18.940;2023-05-29T03:07:08;97990.56;;;15.45;66.10
65754;BME280;69207;47.502;18.940;2023-05-29T03:08:12;97985.62;;;15.43;66.27
65754;BME280;69207;47.502;18.940;2023-05-29T03:09:16;97980.09;;;15.43;66.30
65754;BME280;69207;47.502;18.940;2023-05-29T03:10:19;97991.06;;;15.41;66.65
65754;BME280;69207;47.502;18.940;2023-05-29T03:11:23;97980.63;;;15.40;66.41
65754;BME280;69207;47.502;18.940;2023-05-29T03:12:27;97992.50;;;15.42;66.02
65754;BME280;69207;47.502;18.940;2023-05-29T03:13:30;97981.53;;;15.44;66.53
65754;BME280;69207;47.502;18.940;2023-05-29T03:14:33;97985.62;;;15.43;66.30
65754;BME280;69207;47.502;18.940;2023-05-29T03:15:38;97987.16;;;15.46;65.94
65754;BME280;69207;47.502;18.940;2023-05-29T03:16:43;97990.66;;;15.47;65.91
65754;BME280;69207;47.502;18.940;2023-05-29T03:17:46;97992.00;;;15.46;65.93
65754;BME280;69207;47.502;18.940;2023-05-29T03:18:49;97983.69;;;15.46;66.10
65754;BME280;69207;47.502;18.940;2023-05-29T03:19:52;97990.66;;;15.47;65.88
65754;BME280;69207;47.502;18.940;2023-05-29T03:20:56;97984.41;;;15.46;65.57
65754;BME280;69207;47.502;18.940;2023-05-29T03:22:00;97985.19;;;15.49;65.70
65754;BME280;69207;47.502;18.940;2023-05-29T03:23:03;97980.41;;;15.49;65.90
65754;BME280;69207;47.502;18.940;2023-05-29T03:24:06;97981.19;;;15.52;65.46
65754;BME280;69207;47.502;18.940;2023-05-29T03:25:09;97986.81;;;15.54;65.26
65754;BME280;69207;47.502;18.940;2023-05-29T03:26:12;97987.66;;;15.56;65.58
65754;BME280;69207;47.502;18.940;2023-05-29T03:27:15;97982.75;;;15.55;65.60
65754;BME280;69207;47.502;18.940;2023-05-29T03:28:18;97982.00;;;15.54;66.07
65754;BME280;69207;47.502;18.940;2023-05-29T03:29:21;97987.53;;;15.54;65.85
65754;BME280;69207;47.502;18.940;2023-05-29T03:30:24;97989.00;;;15.55;65.49
65754;BME280;69207;47.502;18.940;2023-05-29T03:31:27;97986.22;;;15.55;65.59
65754;BME280;69207;47.502;18.940;2023-05-29T03:32:30;97994.63;;;15.57;65.66
65754;BME280;69207;47.502;18.940;2023-05-29T03:33:35;97985.19;;;15.63;65.61
65754;BME280;69207;47.502;18.940;2023-05-29T03:34:39;97993.69;;;15.67;65.24
65754;BME280;69207;47.502;18.940;2023-05-29T03:35:42;97994.41;;;15.67;65.14
65754;BME280;69207;47.502;18.940;2023-05-29T03:36:45;97992.72;;;15.76;64.87
65754;BME280;69207;47.502;18.940;2023-05-29T03:37:49;97996.13;;;15.74;64.56
65754;BME280;69207;47.502;18.940;2023-05-29T03:38:52;98000.94;;;15.74;64.52
65754;BME280;69207;47.502;18.940;2023-05-29T03:39:54;97995.41;;;15.74;64.61
65754;BME280;69207;47.502;18.940;2023-05-29T03:40:58;97999.78;;;15.79;64.69
65754;BME280;69207;47.502;18.940;2023-05-29T03:42:01;97995.78;;;15.82;64.62
65754;BME280;69207;47.502;18.940;2023-05-29T03:43:05;97999.88;;;15.81;64.58
65754;BME280;69207;47.502;18.940;2023-05-29T03:44:09;98009.53;;;15.80;64.54
65754;BME280;69207;47.502;18.940;2023-05-29T03:45:12;98013.66;;;15.79;64.91
65754;BME280;69207;47.502;18.940;2023-05-29T03:46:15;98010.25;;;15.80;64.76
65754;BME280;69207;47.502;18.940;2023-05-29T03:47:18;98010.44;;;15.84;64.51
65754;BME280;69207;47.502;18.940;2023-05-29T03:48:21;98010.44;;;15.84;64.55
65754;BME280;69207;47.502;18.940;2023-05-29T03:49:24;98009.72;;;15.84;64.75
65754;BME280;69207;47.502;18.940;2023-05-29T03:50:27;98015.97;;;15.84;65.07
65754;BME280;69207;47.502;18.940;2023-05-29T03:51:30;98012.78;;;15.90;64.98
65754;BME280;69207;47.502;18.940;2023-05-29T03:52:33;98016.06;;;15.87;65.17
65754;BME280;69207;47.502;18.940;2023-05-29T03:53:37;98010.63;;;15.89;65.30
65754;BME280;69207;47.502;18.940;2023-05-29T03:54:40;98017.06;;;15.93;64.64
65754;BME280;69207;47.502;18.940;2023-05-29T03:55:43;98021.38;;;15.96;64.17
65754;BME280;69207;47.502;18.940;2023-05-29T03:56:46;98014.41;;;15.95;64.45
65754;BME280;69207;47.502;18.940;2023-05-29T03:57:49;98022.78;;;15.97;64.59
65754;BME280;69207;47.502;18.940;2023-05-29T03:58:52;98018.87;;;16.02;64.44
65754;BME280;69207;47.502;18.940;2023-05-29T03:59:55;98019.69;;;16.05;64.88
65754;BME280;69207;47.502;18.940;2023-05-29T04:00:58;98017.53;;;16.03;65.14
65754;BME280;69207;47.502;18.940;2023-05-29T04:02:01;98020.31;;;16.03;65.34
65754;BME280;69207;47.502;18.940;2023-05-29T04:03:04;98017.66;;;16.05;65.16
65754;BME280;69207;47.502;18.940;2023-05-29T04:04:07;98023.91;;;16.06;65.28
65754;BME280;69207;47.502;18.940;2023-05-29T04:05:11;98019.69;;;16.05;65.83
65754;BME280;69207;47.502;18.940;2023-05-29T04:06:15;98024.69;;;16.08;65.64
65754;BME280;69207;47.502;18.940;2023-05-29T04:07:19;98023.34;;;16.09;65.57
65754;BME280;69207;47.502;18.940;2023-05-29T04:08:23;98028.19;;;16.09;65.79
65754;BME280;69207;47.502;18.940;2023-05-29T04:09:26;98024.63;;;16.06;65.89
65754;BME280;69207;47.502;18.940;2023-05-29T04:10:29;98019.78;;;16.07;66.20
65754;BME280;69207;47.502;18.940;2023-05-29T04:11:33;98017.00;;;16.07;66.28
65754;BME280;69207;47.502;18.940;2023-05-29T04:12:37;98022.56;;;16.07;66.55
65754;BME280;69207;47.502;18.940;2023-05-29T04:13:40;98021.22;;;16.08;66.51
65754;BME280;69207;47.502;18.940;2023-05-29T04:14:43;98022.03;;;16.10;66.26
65754;BME280;69207;47.502;18.940;2023-05-29T04:15:46;98022.19;;;16.15;65.87
65754;BME280;69207;47.502;18.940;2023-05-29T04:16:50;98022.19;;;16.15;65.87
65754;BME280;69207;47.502;18.940;2023-05-29T04:17:53;98018.91;;;16.18;65.61
65754;BME280;69207;47.502;18.940;2023-05-29T04:18:56;98024.63;;;16.22;65.31
65754;BME280;69207;47.502;18.940;2023-05-29T04:19:59;98024.00;;;16.24;65.11
65754;BME280;69207;47.502;18.940;2023-05-29T04:21:08;98026.16;;;16.25;65.24
65754;BME280;69207;47.502;18.940;2023-05-29T04:22:12;98023.38;;;16.25;65.63
65754;BME280;69207;47.502;18.940;2023-05-29T04:23:15;98026.25;;;16.27;65.64
65754;BME280;69207;47.502;18.940;2023-05-29T04:24:18;98029.75;;;16.28;65.62
65754;BME280;69207;47.502;18.940;2023-05-29T04:25:22;98031.88;;;16.29;65.28
65754;BME280;69207;47.502;18.940;2023-05-29T04:26:25;98035.37;;;16.30;65.50
65754;BME280;69207;47.502;18.940;2023-05-29T04:27:28;98030.53;;;16.30;65.42
65754;BME280;69207;47.502;18.940;2023-05-29T04:28:31;98025.00;;;16.30;65.80
65754;BME280;69207;47.502;18.940;2023-05-29T04:29:34;98031.25;;;16.31;66.27
65754;BME280;69207;47.502;18.940;2023-05-29T04:30:37;98028.59;;;16.33;65.77
65754;BME280;69207;47.502;18.940;2023-05-29T04:31:42;98024.47;;;16.34;66.00
65754;BME280;69207;47.502;18.940;2023-05-29T04:32:45;98038.88;;;16.46;64.29
65754;BME280;69207;47.502;18.940;2023-05-29T04:33:49;98031.34;;;16.49;63.86
65754;BME280;69207;47.502;18.940;2023-05-29T04:34:52;98026.34;;;16.45;64.19
65754;BME280;69207;47.502;18.940;2023-05-29T04:35:55;98026.53;;;16.49;64.16
65754;BME280;69207;47.502;18.940;2023-05-29T04:36:58;98021.78;;;16.52;64.04
65754;BME280;69207;47.502;18.940;2023-05-29T04:38:01;98033.78;;;16.56;63.87
65754;BME280;69207;47.502;18.940;2023-05-29T04:39:07;98026.16;;;16.57;63.67
65754;BME280;69207;47.502;18.940;2023-05-29T04:40:10;98035.13;;;16.55;64.20
65754;BME280;69207;47.502;18.940;2023-05-29T04:41:17;98038.59;;;16.56;64.63
65754;BME280;69207;47.502;18.940;2023-05-29T04:42:20;98033.84;;;16.58;64.79
65754;BME280;69207;47.502;18.940;2023-05-29T04:43:23;98035.28;;;16.59;64.95
65754;BME280;69207;47.502;18.940;2023-05-29T04:44:29;98040.84;;;16.59;65.57
65754;BME280;69207;47.502;18.940;2023-05-29T04:45:32;98038.16;;;16.61;65.50
65754;BME280;69207;47.502;18.940;2023-05-29T04:46:35;98032.78;;;16.66;64.31
65754;BME280;69207;47.502;18.940;2023-05-29T04:47:38;98033.09;;;16.72;64.16
65754;BME280;69207;47.502;18.940;2023-05-29T04:48:46;98038.09;;;16.75;63.88
65754;BME280;69207;47.502;18.940;2023-05-29T04:49:50;98038.34;;;16.81;63.41
65754;BME280;69207;47.502;18.940;2023-05-29T04:50:54;98033.50;;;16.82;63.48
65754;BME280;69207;47.502;18.940;2023-05-29T04:51:57;98036.28;;;16.82;63.48
65754;BME280;69207;47.502;18.940;2023-05-29T04:53:03;98035.66;;;16.83;63.63
65754;BME280;69207;47.502;18.940;2023-05-29T04:54:07;98033.78;;;16.88;63.52
65754;BME280;69207;47.502;18.940;2023-05-29T04:55:11;98040.84;;;16.91;63.96
65754;BME280;69207;47.502;18.940;2023-05-29T04:56:15;98042.91;;;16.91;64.25
65754;BME280;69207;47.502;18.940;2023-05-29T04:57:18;98036.81;;;16.94;64.22
65754;BME280;69207;47.502;18.940;2023-05-29T04:58:21;98039.75;;;16.98;63.79
65754;BME280;69207;47.502;18.940;2023-05-29T04:59:24;98040.47;;;16.99;63.72
65754;BME280;69207;47.502;18.940;2023-05-29T05:00:28;98041.28;;;17.01;64.02
65754;BME280;69207;47.502;18.940;2023-05-29T05:01:32;98038.03;;;17.07;63.03
65754;BME280;69207;47.502;18.940;2023-05-29T05:02:36;98041.00;;;17.11;62.64
65754;BME280;69207;47.502;18.940;2023-05-29T05:03:42;98042.44;;;17.12;62.97
65754;BME280;69207;47.502;18.940;2023-05-29T05:04:45;98043.22;;;17.14;63.18
65754;BME280;69207;47.502;18.940;2023-05-29T05:05:48;98044.09;;;17.19;63.06
65754;BME280;69207;47.502;18.940;2023-05-29T05:06:52;98041.28;;;17.35;61.51
65754;BME280;69207;47.502;18.940;2023-05-29T05:07:55;98036.88;;;17.46;60.84
65754;BME280;69207;47.502;18.940;2023-05-29T05:08:57;98037.03;;;17.50;60.74
65754;BME280;69207;47.502;18.940;2023-05-29T05:10:01;98037.19;;;17.54;60.40
65754;BME280;69207;47.502;18.940;2023-05-29T05:11:04;98040.59;;;17.52;60.90
65754;BME280;69207;47.502;18.940;2023-05-29T05:12:09;98043.44;;;17.54;60.94
65754;BME280;69207;47.502;18.940;2023-05-29T05:13:12;98036.63;;;17.57;61.31
65754;BME280;69207;47.502;18.940;2023-05-29T05:14:15;98039.59;;;17.61;61.18
65754;BME280;69207;47.502;18.940;2023-05-29T05:15:18;98047.53;;;17.69;61.28
65754;BME280;69207;47.502;18.940;2023-05-29T05:16:21;98043.50;;;17.72;60.86
65754;BME280;69207;47.502;18.940;2023-05-29T05:17:24;98044.47;;;17.79;60.75
65754;BME280;69207;47.502;18.940;2023-05-29T05:18:27;98042.47;;;17.81;60.73
65754;BME280;69207;47.502;18.940;2023-05-29T05:19:30;98044.75;;;17.87;60.34
65754;BME280;69207;47.502;18.940;2023-05-29T05:20:33;98052.38;;;17.86;60.57
65754;BME280;69207;47.502;18.940;2023-05-29T05:21:36;98048.41;;;17.91;60.23
65754;BME280;69207;47.502;18.940;2023-05-29T05:22:39;98049.22;;;17.94;59.68
65754;BME280;69207;47.502;18.940;2023-05-29T05:23:42;98045.25;;;17.99;59.26
65754;BME280;69207;47.502;18.940;2023-05-29T05:24:59;98047.22;;;17.97;59.84
65754;BME280;69207;47.502;18.940;2023-05-29T05:26:03;98052.06;;;17.96;59.60
65754;BME280;69207;47.502;18.940;2023-05-29T05:27:06;98048.53;;;17.93;60.09
65754;BME280;69207;47.502;18.940;2023-05-29T05:28:09;98052.72;;;17.94;60.28
65754;BME280;69207;47.502;18.940;2023-05-29T05:29:12;98051.28;;;17.93;60.71
65754;BME280;69207;47.502;18.940;2023-05-29T05:30:16;98049.37;;;17.98;60.71
65754;BME280;69207;47.502;18.940;2023-05-29T05:31:19;98054.16;;;17.96;60.62
65754;BME280;69207;47.502;18.940;2023-05-29T05:32:22;98053.50;;;17.97;60.71
65754;BME280;69207;47.502;18.940;2023-05-29T05:33:25;98055.25;;;18.06;59.96
65754;BME280;69207;47.502;18.940;2023-05-29T05:34:28;98053.19;;;18.07;59.82
65754;BME280;69207;47.502;18.940;2023-05-29T05:35:31;98056.84;;;18.11;59.80
65754;BME280;69207;47.502;18.940;2023-05-29T05:36:34;98055.66;;;18.16;59.31
65754;BME280;69207;47.502;18.940;2023-05-29T05:37:37;98051.50;;;18.17;59.43
65754;BME280;69207;47.502;18.940;2023-05-29T05:38:40;98056.50;;;18.21;60.11
65754;BME280;69207;47.502;18.940;2023-05-29T05:39:43;98059.44;;;18.25;60.30
65754;BME280;69207;47.502;18.940;2023-05-29T05:40:46;98052.69;;;18.30;59.77